createdAt,value
2022-10-03T00:01:15.758Z,16.70
2022-10-03T00:03:46.824Z,16.80
2022-10-03T00:06:15.764Z,16.80
2022-10-03T00:08:56.100Z,16.70
2022-10-03T00:11:29.271Z,16.80
2022-10-03T00:14:01.618Z,16.70
2022-10-03T00:16:37.633Z,16.70
2022-10-03T00:19:09.333Z,16.70
2022-10-03T00:21:43.407Z,16.70
2022-10-03T00:24:18.275Z,16.70
2022-10-03T00:26:48.748Z,16.70
2022-10-03T00:29:43.519Z,16.70
2022-10-03T00:32:19.450Z,16.80
2022-10-03T00:34:56.010Z,16.90
2022-10-03T00:37:28.249Z,16.80
2022-10-03T00:40:07.127Z,16.80
2022-10-03T00:43:03.145Z,16.70
2022-10-03T00:45:46.390Z,16.60
2022-10-03T00:48:51.511Z,16.60
2022-10-03T00:51:29.141Z,16.50
2022-10-03T00:54:03.537Z,16.70
2022-10-03T00:56:48.504Z,16.70
2022-10-03T00:59:30.199Z,16.80
2022-10-03T01:01:59.790Z,16.80
2022-10-03T01:04:46.599Z,16.80
2022-10-03T01:07:25.669Z,16.70
2022-10-03T01:09:59.989Z,16.70
2022-10-03T01:12:39.093Z,16.60
2022-10-03T01:15:16.462Z,16.60
2022-10-03T01:17:54.075Z,16.60
2022-10-03T01:20:31.623Z,16.70
2022-10-03T01:23:43.687Z,16.60
2022-10-03T01:26:20.857Z,16.60
2022-10-03T01:29:10.196Z,16.80
2022-10-03T01:31:43.293Z,16.80
2022-10-03T01:34:14.463Z,16.70
2022-10-03T01:36:49.947Z,16.70
2022-10-03T01:39:22.720Z,16.70
2022-10-03T01:41:53.425Z,16.60
2022-10-03T01:44:25.263Z,16.50
2022-10-03T01:46:55.820Z,16.60
2022-10-03T01:49:26.401Z,16.50
2022-10-03T01:52:00.190Z,16.60
2022-10-03T01:54:35.503Z,16.60
2022-10-03T01:57:05.436Z,16.60
2022-10-03T01:59:38.615Z,16.50
2022-10-03T02:02:09.821Z,16.60
2022-10-03T02:04:43.812Z,16.70
2022-10-03T02:07:18.066Z,16.70
2022-10-03T02:09:52.097Z,16.70
2022-10-03T02:12:26.727Z,16.70
2022-10-03T02:14:59.283Z,16.60
2022-10-03T02:17:31.525Z,16.60
2022-10-03T02:20:04.411Z,16.60
2022-10-03T02:22:37.196Z,16.50
2022-10-03T02:25:21.977Z,16.50
2022-10-03T02:28:13.502Z,16.50
2022-10-03T02:30:48.335Z,16.60
2022-10-03T02:33:46.632Z,16.80
2022-10-03T02:36:31.641Z,16.70
2022-10-03T02:39:24.607Z,16.60
2022-10-03T02:42:20.117Z,16.60
2022-10-03T02:45:12.046Z,16.60
2022-10-03T02:48:34.379Z,16.60
2022-10-03T02:51:25.583Z,16.60
2022-10-03T02:54:31.511Z,16.40
2022-10-03T02:57:12.700Z,16.50
2022-10-03T02:59:58.516Z,16.60
2022-10-03T03:03:03.236Z,16.70
2022-10-03T03:06:04.910Z,16.70
2022-10-03T03:08:50.594Z,16.60
2022-10-03T03:11:39.520Z,16.60
2022-10-03T03:14:21.733Z,16.50
2022-10-03T03:17:09.311Z,16.50
2022-10-03T03:19:52.688Z,16.50
2022-10-03T03:22:32.329Z,16.50
2022-10-03T03:25:09.135Z,16.50
2022-10-03T03:27:44.891Z,16.60
2022-10-03T03:30:15.563Z,16.70
2022-10-03T03:32:54.439Z,16.70
2022-10-03T03:35:28.286Z,16.60
2022-10-03T03:38:00.904Z,16.60
2022-10-03T03:40:46.611Z,16.50
2022-10-03T03:43:34.329Z,16.40
2022-10-03T03:46:09.105Z,16.40
2022-10-03T03:48:50.613Z,16.40
2022-10-03T03:51:23.945Z,16.40
2022-10-03T03:54:01.966Z,16.40
2022-10-03T03:56:49.988Z,16.40
2022-10-03T03:59:28.327Z,16.40
2022-10-03T04:02:12.916Z,16.50
2022-10-03T04:04:46.925Z,16.60
2022-10-03T04:07:22.170Z,16.60
2022-10-03T04:09:59.779Z,16.60
2022-10-03T04:12:37.162Z,16.50
2022-10-03T04:15:17.957Z,16.50
2022-10-03T04:18:08.922Z,16.40
2022-10-03T04:20:56.484Z,16.50
2022-10-03T04:23:33.354Z,16.30
2022-10-03T04:26:08.408Z,16.50
2022-10-03T04:28:59.998Z,16.40
2022-10-03T04:31:34.269Z,16.60
2022-10-03T04:34:13.858Z,16.60
2022-10-03T04:36:59.715Z,16.60
2022-10-03T04:39:32.101Z,16.50
2022-10-03T04:42:02.831Z,16.50
2022-10-03T04:44:40.862Z,16.40
2022-10-03T04:47:11.150Z,16.50
2022-10-03T04:49:41.980Z,16.30
2022-10-03T04:52:17.387Z,16.50
2022-10-03T04:54:51.069Z,16.40
2022-10-03T04:57:24.234Z,16.40
2022-10-03T04:59:55.178Z,16.60
2022-10-03T05:02:33.487Z,16.60
2022-10-03T05:05:20.905Z,16.60
2022-10-03T05:07:51.772Z,16.50
2022-10-03T05:10:44.329Z,16.40
2022-10-03T05:13:16.912Z,16.40
2022-10-03T05:15:52.648Z,16.40
2022-10-03T05:18:26.667Z,16.40
2022-10-03T05:20:57.235Z,16.40
2022-10-03T05:23:31.422Z,16.40
2022-10-03T05:26:39.796Z,16.50
2022-10-03T05:29:00.364Z,16.60
2022-10-03T05:31:36.626Z,16.60
2022-10-03T05:34:10.854Z,16.60
2022-10-03T05:36:59.246Z,16.50
2022-10-03T05:39:38.309Z,16.50
2022-10-03T05:42:37.291Z,16.40
2022-10-03T05:45:07.091Z,16.40
2022-10-03T05:47:46.409Z,16.30
2022-10-03T05:50:42.307Z,16.30
2022-10-03T05:53:20.176Z,16.40
2022-10-03T05:55:57.825Z,16.30
2022-10-03T05:58:48.539Z,16.40
2022-10-03T06:01:44.855Z,16.40
2022-10-03T06:04:45.049Z,16.50
2022-10-03T06:07:21.428Z,16.60
2022-10-03T06:10:25.866Z,16.50
2022-10-03T06:13:00.553Z,16.40
2022-10-03T06:15:39.387Z,16.40
2022-10-03T06:18:27.901Z,16.40
2022-10-03T06:21:33.474Z,16.50
2022-10-03T06:24:35.005Z,16.50
2022-10-03T06:27:31.466Z,16.60
2022-10-03T06:30:16.140Z,16.60
2022-10-03T06:33:27.245Z,16.80
2022-10-03T06:36:04.407Z,16.90
2022-10-03T06:39:04.757Z,16.80
2022-10-03T06:42:07.232Z,16.80
2022-10-03T06:44:42.231Z,17.00
2022-10-03T06:47:22.504Z,17.00
2022-10-03T06:50:20.477Z,17.10
2022-10-03T06:53:20.295Z,17.20
2022-10-03T06:56:23.174Z,17.20
2022-10-03T06:59:27.376Z,17.30
2022-10-03T07:02:22.232Z,17.40
2022-10-03T07:05:01.726Z,17.40
2022-10-03T07:08:06.230Z,17.50
2022-10-03T07:10:40.536Z,17.50
2022-10-03T07:13:41.018Z,17.50
2022-10-03T07:16:41.460Z,17.50
2022-10-03T07:19:51.135Z,17.60
2022-10-03T07:22:48.115Z,17.60
2022-10-03T07:25:31.305Z,17.60
2022-10-03T07:28:28.281Z,17.70
2022-10-03T07:31:02.784Z,17.70
2022-10-03T07:34:02.094Z,17.60
2022-10-03T07:36:59.375Z,17.60
2022-10-03T07:39:52.488Z,17.40
2022-10-03T07:43:00.226Z,17.50
2022-10-03T07:45:38.140Z,17.60
2022-10-03T07:48:40.245Z,17.70
2022-10-03T07:51:15.428Z,17.70
2022-10-03T07:54:13.347Z,17.70
2022-10-03T07:57:09.856Z,17.80
2022-10-03T08:00:05.730Z,17.80
2022-10-03T08:03:03.484Z,17.80
2022-10-03T08:05:41.739Z,17.80
2022-10-03T08:08:40.161Z,17.80
2022-10-03T08:11:29.744Z,17.70
2022-10-03T08:14:10.157Z,17.60
2022-10-03T08:16:53.518Z,17.70
2022-10-03T08:19:43.276Z,17.70
2022-10-03T08:22:13.679Z,17.70
2022-10-03T08:25:01.881Z,17.80
2022-10-03T08:27:40.203Z,17.80
2022-10-03T08:30:22.531Z,17.80
2022-10-03T08:33:17.200Z,17.80
2022-10-03T08:36:38.932Z,17.70
2022-10-03T08:39:20.456Z,17.60
2022-10-03T08:42:36.080Z,17.60
2022-10-03T08:45:28.789Z,17.60
2022-10-03T08:48:33.380Z,17.60
2022-10-03T08:51:35.180Z,17.60
2022-10-03T08:54:19.481Z,17.50
2022-10-03T08:57:00.702Z,17.50
2022-10-03T08:59:59.857Z,17.50
2022-10-03T09:03:31.857Z,17.60
2022-10-03T09:06:24.766Z,17.50
2022-10-03T09:09:36.260Z,17.40
2022-10-03T09:12:55.145Z,17.40
2022-10-03T09:16:04.586Z,17.40
2022-10-03T09:22:20.716Z,17.30
2022-10-03T09:25:16.220Z,17.30
2022-10-03T09:28:26.526Z,17.50
2022-10-03T09:30:58.399Z,17.50
2022-10-03T09:36:52.818Z,17.50
2022-10-03T09:40:09.753Z,17.40
2022-10-03T09:42:54.278Z,17.30
2022-10-03T09:45:37.220Z,17.30
2022-10-03T09:50:57.407Z,17.30
2022-10-03T09:53:53.720Z,17.30
2022-10-03T09:56:56.097Z,17.40
2022-10-03T09:59:53.463Z,17.30
2022-10-03T10:02:41.788Z,17.40
2022-10-03T10:05:22.826Z,17.50
2022-10-03T10:08:15.246Z,17.60
2022-10-03T10:10:59.883Z,17.60
2022-10-03T10:14:13.021Z,17.50
2022-10-03T10:17:08.597Z,17.40
2022-10-03T10:19:53.667Z,17.40
2022-10-03T10:22:44.996Z,17.40
2022-10-03T10:25:39.895Z,17.40
2022-10-03T10:28:49.689Z,17.40
2022-10-03T10:31:58.337Z,17.50
2022-10-03T10:34:56.876Z,17.60
2022-10-03T10:37:55.035Z,17.60
2022-10-03T10:40:47.187Z,17.50
2022-10-03T10:44:03.648Z,17.50
2022-10-03T10:47:15.104Z,17.40
2022-10-03T10:50:39.904Z,17.40
2022-10-03T10:53:42.188Z,17.40
2022-10-03T10:56:31.465Z,17.50
2022-10-03T10:59:39.429Z,17.50
2022-10-03T11:02:44.008Z,17.60
2022-10-03T11:05:47.954Z,17.70
2022-10-03T11:09:01.267Z,17.60
2022-10-03T11:11:49.951Z,17.50
2022-10-03T11:14:50.591Z,17.50
2022-10-03T11:17:56.177Z,17.60
2022-10-03T11:21:00.029Z,17.60
2022-10-03T11:24:06.130Z,17.60
2022-10-03T11:27:04.005Z,17.60
2022-10-03T11:30:07.325Z,17.70
2022-10-03T11:33:22.867Z,17.70
2022-10-03T11:36:35.830Z,17.70
2022-10-03T11:39:06.536Z,17.60
2022-10-03T11:41:41.111Z,17.50
2022-10-03T11:44:19.914Z,17.50
2022-10-03T11:46:53.008Z,17.50
2022-10-03T11:49:40.384Z,17.50
2022-10-03T11:52:14.617Z,17.50
2022-10-03T11:54:44.682Z,17.50
2022-10-03T11:57:17.608Z,17.50
2022-10-03T11:59:55.624Z,17.50
2022-10-03T12:02:41.961Z,17.60
2022-10-03T12:05:16.450Z,17.60
2022-10-03T12:08:03.636Z,17.70
2022-10-03T12:10:39.305Z,17.70
2022-10-03T12:13:15.113Z,17.60
2022-10-03T12:15:44.317Z,17.50
2022-10-03T12:18:15.243Z,17.50
2022-10-03T12:20:55.574Z,17.50
2022-10-03T12:23:31.360Z,17.60
2022-10-03T12:26:02.711Z,17.50
2022-10-03T12:28:32.509Z,17.60
2022-10-03T12:31:02.479Z,17.60
2022-10-03T12:33:43.365Z,17.60
2022-10-03T12:36:15.561Z,17.70
2022-10-03T12:38:51.007Z,17.70
2022-10-03T12:41:25.903Z,17.60
2022-10-03T12:44:05.459Z,17.60
2022-10-03T12:46:38.696Z,17.60
2022-10-03T12:49:08.711Z,17.60
2022-10-03T12:51:46.994Z,17.60
2022-10-03T12:54:24.770Z,17.60
2022-10-03T12:57:08.589Z,17.70
2022-10-03T12:59:38.455Z,17.70
2022-10-03T13:02:26.820Z,17.70
2022-10-03T13:05:14.545Z,17.80
2022-10-03T13:07:45.031Z,17.70
2022-10-03T13:10:18.768Z,17.70
2022-10-03T13:12:51.185Z,17.70
2022-10-03T13:15:45.560Z,17.70
2022-10-03T13:18:21.599Z,17.60
2022-10-03T13:20:53.026Z,17.70
2022-10-03T13:23:24.657Z,17.70
2022-10-03T13:25:56.361Z,17.70
2022-10-03T13:28:31.097Z,17.80
2022-10-03T13:31:02.193Z,17.80
2022-10-03T13:33:32.337Z,17.80
2022-10-03T13:36:02.945Z,17.80
2022-10-03T13:39:00.031Z,17.70
2022-10-03T13:41:30.887Z,17.60
2022-10-03T13:44:02.186Z,17.60
2022-10-03T13:46:38.561Z,17.60
2022-10-03T13:49:11.203Z,17.60
2022-10-03T13:51:44.706Z,17.60
2022-10-03T13:54:21.337Z,17.60
2022-10-03T13:56:53.583Z,17.70
2022-10-03T13:59:32.469Z,17.70
2022-10-03T14:02:05.245Z,17.70
2022-10-03T14:05:02.065Z,17.80
2022-10-03T14:07:36.052Z,17.80
2022-10-03T14:10:07.006Z,17.80
2022-10-03T14:12:54.854Z,17.70
2022-10-03T14:15:31.631Z,17.70
2022-10-03T14:18:04.651Z,17.70
2022-10-03T14:20:44.481Z,17.70
2022-10-03T14:23:20.909Z,17.70
2022-10-03T14:25:52.928Z,17.80
2022-10-03T14:28:21.907Z,17.70
2022-10-03T14:31:06.076Z,17.60
2022-10-03T14:33:39.904Z,17.70
2022-10-03T14:36:16.455Z,17.80
2022-10-03T14:39:02.031Z,17.70
2022-10-03T14:41:40.539Z,17.70
2022-10-03T14:44:13.295Z,17.70
2022-10-03T14:46:45.820Z,17.70
2022-10-03T14:49:47.086Z,17.70
2022-10-03T14:52:13.023Z,17.70
2022-10-03T14:54:42.366Z,17.70
2022-10-03T14:57:34.840Z,17.70
2022-10-03T15:00:24.144Z,17.70
2022-10-03T15:02:53.862Z,17.80
2022-10-03T15:05:24.371Z,17.80
2022-10-03T15:07:53.670Z,17.80
2022-10-03T15:10:23.655Z,17.70
2022-10-03T15:12:54.193Z,17.70
2022-10-03T15:15:25.292Z,17.70
2022-10-03T15:17:56.814Z,17.70
2022-10-03T15:23:08.130Z,17.60
2022-10-03T15:25:37.398Z,17.70
2022-10-03T15:28:06.631Z,17.70
2022-10-03T15:30:36.651Z,17.70
2022-10-03T15:35:42.340Z,17.80
2022-10-03T15:38:13.946Z,17.70
2022-10-03T15:40:47.068Z,17.50
2022-10-03T15:43:29.169Z,17.40
2022-10-03T15:45:57.712Z,17.50
2022-10-03T15:48:29.326Z,17.40
2022-10-03T15:50:58.615Z,17.50
2022-10-03T15:53:36.538Z,17.40
2022-10-03T15:56:12.387Z,17.40
2022-10-03T15:58:45.585Z,17.60
2022-10-03T16:01:18.150Z,17.60
2022-10-03T16:03:47.768Z,17.60
2022-10-03T16:06:20.198Z,17.60
2022-10-03T16:08:57.005Z,17.70
2022-10-03T16:11:26.984Z,17.60
2022-10-03T16:14:01.269Z,17.60
2022-10-03T16:16:32.606Z,17.60
2022-10-03T16:19:21.638Z,17.50
2022-10-03T16:21:50.265Z,17.50
2022-10-03T16:24:22.910Z,17.50
2022-10-03T16:26:53.130Z,17.50
2022-10-03T16:29:22.053Z,17.50
2022-10-03T16:31:52.493Z,17.60
2022-10-03T16:34:21.350Z,17.60
2022-10-03T16:36:50.517Z,17.60
2022-10-03T16:39:25.210Z,17.60
2022-10-03T16:41:55.445Z,17.60
2022-10-03T16:44:28.848Z,17.50
2022-10-03T16:46:59.641Z,17.50
2022-10-03T16:49:55.086Z,17.40
2022-10-03T16:52:25.018Z,17.30
2022-10-03T16:55:02.809Z,17.40
2022-10-03T16:57:34.029Z,17.50
2022-10-03T17:00:08.020Z,17.50
2022-10-03T17:02:36.199Z,17.50
2022-10-03T17:05:05.466Z,17.60
2022-10-03T17:07:38.858Z,17.50
2022-10-03T17:10:18.781Z,17.50
2022-10-03T17:12:46.900Z,17.40
2022-10-03T17:15:24.505Z,17.40
2022-10-03T17:18:02.431Z,17.40
2022-10-03T17:20:38.802Z,17.40
2022-10-03T17:23:10.197Z,17.40
2022-10-03T17:25:50.546Z,17.40
2022-10-03T17:28:26.299Z,17.50
2022-10-03T17:30:54.920Z,17.50
2022-10-03T17:33:25.596Z,17.50
2022-10-03T17:35:56.332Z,17.50
2022-10-03T17:38:48.924Z,17.40
2022-10-03T17:41:22.148Z,17.30
2022-10-03T17:43:57.355Z,17.20
2022-10-03T17:46:29.727Z,17.30
2022-10-03T17:49:01.501Z,17.30
2022-10-03T17:51:36.226Z,17.20
2022-10-03T17:54:06.318Z,17.20
2022-10-03T17:56:35.889Z,17.20
2022-10-03T17:59:05.565Z,17.20
2022-10-03T18:01:38.635Z,17.30
2022-10-03T18:04:08.602Z,17.20
2022-10-03T18:06:40.114Z,17.40
2022-10-03T18:09:10.387Z,17.40
2022-10-03T18:11:40.450Z,17.40
2022-10-03T18:14:14.809Z,17.40
2022-10-03T18:16:44.465Z,17.20
2022-10-03T18:19:23.549Z,17.20
2022-10-03T18:21:58.889Z,17.20
2022-10-03T18:24:41.120Z,17.10
2022-10-03T18:27:22.267Z,17.30
2022-10-03T18:29:52.143Z,17.20
2022-10-03T18:32:25.512Z,17.30
2022-10-03T18:34:59.759Z,17.40
2022-10-03T18:37:55.390Z,17.40
2022-10-03T18:40:26.812Z,17.30
2022-10-03T18:42:56.483Z,17.30
2022-10-03T18:45:28.435Z,17.10
2022-10-03T18:47:59.115Z,17.20
2022-10-03T18:50:28.548Z,17.30
2022-10-03T18:52:58.895Z,17.20
2022-10-03T18:55:31.348Z,17.20
2022-10-03T18:58:06.101Z,17.20
2022-10-03T19:00:39.510Z,17.20
2022-10-03T19:03:16.069Z,17.40
2022-10-03T19:05:47.386Z,17.30
2022-10-03T19:08:21.087Z,17.30
2022-10-03T19:10:52.248Z,17.30
2022-10-03T19:13:28.428Z,17.20
2022-10-03T19:16:33.255Z,17.10
2022-10-03T19:19:07.732Z,17.10
2022-10-03T19:21:39.209Z,17.10
2022-10-03T19:24:12.541Z,17.10
2022-10-03T19:26:45.478Z,17.20
2022-10-03T19:29:19.766Z,17.00
2022-10-03T19:31:58.164Z,17.40
2022-10-03T19:34:30.711Z,17.30
2022-10-03T19:36:58.949Z,17.10
2022-10-03T19:39:27.182Z,17.20
2022-10-03T19:41:56.799Z,17.20
2022-10-03T19:44:29.209Z,17.00
2022-10-03T19:47:02.298Z,17.10
2022-10-03T19:49:37.953Z,16.90
2022-10-03T19:52:17.532Z,17.10
2022-10-03T19:54:47.295Z,17.10
2022-10-03T19:57:16.543Z,17.00
2022-10-03T19:59:47.177Z,17.00
2022-10-03T20:02:15.283Z,17.10
2022-10-03T20:04:43.362Z,17.10
2022-10-03T20:07:13.766Z,17.20
2022-10-03T20:09:41.895Z,17.20
2022-10-03T20:12:10.449Z,17.20
2022-10-03T20:14:39.171Z,17.20
2022-10-03T20:17:11.616Z,17.20
2022-10-03T20:19:48.108Z,17.10
2022-10-03T20:22:17.103Z,16.90
2022-10-03T20:24:45.986Z,17.10
2022-10-03T20:27:22.006Z,17.10
2022-10-03T20:29:52.102Z,17.20
2022-10-03T20:32:21.626Z,17.00
2022-10-03T20:34:52.311Z,17.20
2022-10-03T20:37:36.607Z,17.20
2022-10-03T20:40:12.130Z,17.20
2022-10-03T20:42:40.235Z,17.20
2022-10-03T20:45:14.660Z,17.10
2022-10-03T20:47:53.399Z,17.00
2022-10-03T20:50:26.327Z,17.00
2022-10-03T20:52:54.760Z,17.10
2022-10-03T20:55:25.016Z,17.00
2022-10-03T20:57:57.732Z,17.00
2022-10-03T21:00:25.916Z,17.00
2022-10-03T21:02:57.561Z,17.10
2022-10-03T21:05:26.644Z,17.20
2022-10-03T21:07:55.679Z,17.20
2022-10-03T21:10:29.479Z,17.10
2022-10-03T21:12:58.938Z,17.00
2022-10-03T21:15:34.983Z,17.00
2022-10-03T21:18:04.656Z,17.00
2022-10-03T21:20:35.510Z,16.90
2022-10-03T21:23:05.672Z,17.00
2022-10-03T21:25:34.735Z,17.00
2022-10-03T21:28:03.548Z,17.00
2022-10-03T21:30:44.815Z,17.10
2022-10-03T21:33:18.348Z,17.20
2022-10-03T21:35:46.366Z,17.00
2022-10-03T21:38:19.432Z,17.10
2022-10-03T21:41:12.495Z,17.10
2022-10-03T21:43:46.068Z,17.00
2022-10-03T21:46:17.903Z,17.00
2022-10-03T21:48:58.894Z,16.90
2022-10-03T21:51:28.639Z,16.90
2022-10-03T21:54:18.649Z,17.00
2022-10-03T21:56:57.257Z,16.90
2022-10-03T21:59:44.635Z,16.90
2022-10-03T22:02:15.328Z,17.00
2022-10-03T22:04:46.050Z,16.90
2022-10-03T22:07:15.681Z,17.00
2022-10-03T22:09:50.506Z,17.10
2022-10-03T22:12:18.694Z,17.10
2022-10-03T22:14:49.973Z,17.00
2022-10-03T22:17:21.424Z,17.00
2022-10-03T22:19:52.737Z,16.80
2022-10-03T22:22:28.212Z,16.90
2022-10-03T22:25:15.600Z,16.80
2022-10-03T22:27:45.912Z,16.80
2022-10-03T22:30:15.272Z,16.90
2022-10-03T22:32:47.717Z,17.00
2022-10-03T22:35:30.207Z,17.00
2022-10-03T22:37:58.386Z,17.10
2022-10-03T22:40:26.413Z,17.10
2022-10-03T22:42:56.022Z,16.90
2022-10-03T22:45:24.821Z,17.00
2022-10-03T22:47:53.936Z,17.00
2022-10-03T22:50:26.091Z,16.90
2022-10-03T22:52:54.138Z,16.90
2022-10-03T22:55:23.320Z,16.90
2022-10-03T22:57:51.372Z,16.90
2022-10-03T23:00:23.138Z,16.90
2022-10-03T23:02:55.151Z,16.90
2022-10-03T23:05:27.133Z,17.10
2022-10-03T23:08:02.662Z,17.10
2022-10-03T23:10:39.986Z,17.00
2022-10-03T23:13:11.618Z,16.90
2022-10-03T23:15:40.420Z,16.90
2022-10-03T23:18:22.843Z,16.90
2022-10-03T23:21:05.098Z,16.90
2022-10-03T23:23:38.735Z,16.90
2022-10-03T23:26:36.802Z,16.80
2022-10-03T23:29:06.085Z,16.80
2022-10-03T23:31:54.630Z,17.00
2022-10-03T23:34:45.198Z,17.00
2022-10-03T23:37:39.563Z,17.00
2022-10-03T23:40:30.367Z,16.90
2022-10-03T23:43:04.562Z,16.90
2022-10-03T23:45:34.038Z,16.80
2022-10-03T23:48:03.787Z,16.80
2022-10-03T23:50:37.394Z,16.80
2022-10-03T23:53:06.801Z,16.70
2022-10-03T23:55:36.223Z,16.70
2022-10-03T23:58:04.491Z,16.80
